createdAt,value
2018-02-08T00:00:03.547Z,0.16
2018-02-08T00:01:10.568Z,0.16
2018-02-08T00:02:17.359Z,0.14
2018-02-08T00:03:24.040Z,0.14
2018-02-08T00:04:30.711Z,0.14
2018-02-08T00:05:37.431Z,0.11
2018-02-08T00:06:52.419Z,0.13
2018-02-08T00:07:51.143Z,0.10
2018-02-08T00:08:57.864Z,0.10
2018-02-08T00:10:04.639Z,0.07
2018-02-08T00:11:11.421Z,0.07
2018-02-08T00:12:18.216Z,0.06
2018-02-08T00:13:24.983Z,0.06
2018-02-08T00:14:31.739Z,0.04
2018-02-08T00:15:38.502Z,0.05
2018-02-08T00:16:45.316Z,0.03
2018-02-08T00:17:52.087Z,0.02
2018-02-08T00:18:58.870Z,0.01
2018-02-08T00:20:05.776Z,0.00
2018-02-08T00:21:12.512Z,0.01
2018-02-08T00:22:19.291Z,-0.03
2018-02-08T00:23:26.253Z,-0.03
2018-02-08T00:24:33.072Z,-0.04
2018-02-08T00:25:39.834Z,-0.06
2018-02-08T00:26:46.800Z,-0.06
2018-02-08T00:27:53.554Z,-0.06
2018-02-08T00:29:00.301Z,-0.07
2018-02-08T00:30:07.127Z,-0.08
2018-02-08T00:31:13.903Z,-0.09
2018-02-08T00:32:20.719Z,-0.09
2018-02-08T00:33:27.591Z,-0.11
2018-02-08T00:34:34.348Z,-0.10
2018-02-08T00:35:41.136Z,-0.11
2018-02-08T00:36:47.894Z,-0.13
2018-02-08T00:37:54.759Z,-0.12
2018-02-08T00:39:01.548Z,-0.14
2018-02-08T00:40:08.483Z,-0.15
2018-02-08T00:41:15.220Z,-0.16
2018-02-08T00:42:22.013Z,-0.16
2018-02-08T00:43:28.820Z,-0.16
2018-02-08T00:44:35.607Z,-0.17
2018-02-08T00:45:42.464Z,-0.18
2018-02-08T00:46:49.211Z,-0.18
2018-02-08T00:47:56.048Z,-0.18
2018-02-08T00:49:02.803Z,-0.21
2018-02-08T00:50:09.561Z,-0.21
2018-02-08T00:51:16.315Z,-0.21
2018-02-08T00:52:23.179Z,-0.22
2018-02-08T00:53:29.947Z,-0.24
2018-02-08T00:54:36.719Z,-0.24
2018-02-08T00:55:43.470Z,-0.25
2018-02-08T00:56:50.321Z,-0.26
2018-02-08T00:57:57.068Z,-0.26
2018-02-08T00:59:03.827Z,-0.27
2018-02-08T01:00:10.592Z,-0.28
2018-02-08T01:01:17.452Z,-0.27
2018-02-08T01:02:24.200Z,-0.29
2018-02-08T01:03:30.947Z,-0.29
2018-02-08T01:04:37.671Z,-0.30
2018-02-08T01:05:44.354Z,-0.29
2018-02-08T01:06:51.043Z,-0.30
2018-02-08T01:07:57.835Z,-0.31
2018-02-08T01:09:04.520Z,-0.32
2018-02-08T01:10:11.531Z,-0.33
2018-02-08T01:11:18.295Z,-0.34
2018-02-08T01:12:24.985Z,-0.35
2018-02-08T01:13:31.772Z,-0.35
2018-02-08T01:14:38.479Z,-0.36
2018-02-08T01:15:45.179Z,-0.36
2018-02-08T01:16:51.866Z,-0.37
2018-02-08T01:17:58.559Z,-0.38
2018-02-08T01:19:05.343Z,-0.37
2018-02-08T01:20:12.032Z,-0.39
2018-02-08T01:21:18.736Z,-0.39
2018-02-08T01:22:25.456Z,-0.41
2018-02-08T01:23:32.148Z,-0.41
2018-02-08T01:24:38.845Z,-0.42
2018-02-08T01:25:45.614Z,-0.44
2018-02-08T01:26:52.340Z,-0.43
2018-02-08T01:27:59.119Z,-0.44
2018-02-08T01:29:05.804Z,-0.45
2018-02-08T01:30:12.540Z,-0.45
2018-02-08T01:31:19.247Z,-0.46
2018-02-08T01:32:25.955Z,-0.47
2018-02-08T01:33:32.619Z,-0.47
2018-02-08T01:34:39.347Z,-0.48
2018-02-08T01:35:46.027Z,-0.47
2018-02-08T01:36:52.743Z,-0.50
2018-02-08T01:37:59.529Z,-0.50
2018-02-08T01:39:06.192Z,-0.51
2018-02-08T01:40:13.364Z,-0.52
2018-02-08T01:41:20.137Z,-0.52
2018-02-08T01:42:27.079Z,-0.52
2018-02-08T01:43:33.815Z,-0.54
2018-02-08T01:44:40.500Z,-0.54
2018-02-08T01:45:47.175Z,-0.55
2018-02-08T01:46:53.915Z,-0.56
2018-02-08T01:48:00.595Z,-0.57
2018-02-08T01:49:07.290Z,-0.56
2018-02-08T01:50:13.988Z,-0.58
2018-02-08T01:51:20.685Z,-0.58
2018-02-08T01:52:27.382Z,-0.59
2018-02-08T01:53:34.291Z,-0.60
2018-02-08T01:54:41.003Z,-0.59
2018-02-08T01:55:47.691Z,-0.62
2018-02-08T01:56:54.408Z,-0.60
2018-02-08T01:58:01.107Z,-0.62
2018-02-08T01:59:07.816Z,-0.63
2018-02-08T02:00:14.599Z,-0.64
2018-02-08T02:01:21.333Z,-0.65
2018-02-08T02:02:28.044Z,-0.66
2018-02-08T02:03:34.739Z,-0.67
2018-02-08T02:04:41.467Z,-0.68
2018-02-08T02:05:48.166Z,-0.69
2018-02-08T02:06:54.928Z,-0.68
2018-02-08T02:08:01.638Z,-0.70
2018-02-08T02:09:08.424Z,-0.71
2018-02-08T02:10:15.120Z,-0.71
2018-02-08T02:11:21.808Z,-0.71
2018-02-08T02:12:28.496Z,-0.72
2018-02-08T02:13:35.230Z,-0.73
2018-02-08T02:14:41.932Z,-0.75
2018-02-08T02:15:48.604Z,-0.75
2018-02-08T02:16:55.292Z,-0.76
2018-02-08T02:18:01.988Z,-0.77
2018-02-08T02:19:08.832Z,-0.77
2018-02-08T02:20:15.691Z,-0.78
2018-02-08T02:21:22.375Z,-0.79
2018-02-08T02:22:29.079Z,-0.79
2018-02-08T02:23:35.811Z,-0.81
2018-02-08T02:24:42.613Z,-0.82
2018-02-08T02:25:49.296Z,-0.82
2018-02-08T02:26:56.000Z,-0.83
2018-02-08T02:28:02.708Z,-0.85
2018-02-08T02:29:09.435Z,-0.86
2018-02-08T02:30:16.144Z,-0.86
2018-02-08T02:31:22.831Z,-0.86
2018-02-08T02:32:29.536Z,-0.86
2018-02-08T02:33:36.365Z,-0.87
2018-02-08T02:34:43.076Z,-0.88
2018-02-08T02:35:49.756Z,-0.89
2018-02-08T02:36:56.431Z,-0.90
2018-02-08T02:38:03.151Z,-0.92
2018-02-08T02:39:09.829Z,-0.92
2018-02-08T02:40:16.564Z,-0.94
2018-02-08T02:41:23.239Z,-0.93
2018-02-08T02:42:29.922Z,-0.95
2018-02-08T02:43:36.587Z,-0.95
2018-02-08T02:44:43.404Z,-0.97
2018-02-08T02:45:50.139Z,-0.96
2018-02-08T02:46:56.848Z,-0.96
2018-02-08T02:48:03.560Z,-0.97
2018-02-08T02:49:10.291Z,-0.97
2018-02-08T02:50:16.995Z,-0.98
2018-02-08T02:51:23.788Z,-1.00
2018-02-08T02:52:30.490Z,-1.03
2018-02-08T02:53:37.205Z,-1.02
2018-02-08T02:54:43.900Z,-1.03
2018-02-08T02:55:50.667Z,-1.03
2018-02-08T02:56:57.353Z,-1.03
2018-02-08T02:58:04.364Z,-1.04
2018-02-08T02:59:11.067Z,-1.06
2018-02-08T03:00:17.764Z,-1.07
2018-02-08T03:01:24.625Z,-1.06
2018-02-08T03:02:31.314Z,-1.08
2018-02-08T03:03:38.044Z,-1.07
2018-02-08T03:04:44.778Z,-1.06
2018-02-08T03:05:51.471Z,-1.09
2018-02-08T03:06:58.155Z,-1.09
2018-02-08T03:08:04.843Z,-1.10
2018-02-08T03:09:11.717Z,-1.11
2018-02-08T03:10:18.423Z,-1.12
2018-02-08T03:11:30.314Z,-1.12
2018-02-08T03:12:32.096Z,-1.13
2018-02-08T03:13:38.798Z,-1.14
2018-02-08T03:14:45.495Z,-1.16
2018-02-08T03:15:52.187Z,-1.17
2018-02-08T03:16:58.905Z,-1.18
2018-02-08T03:18:05.600Z,-1.18
2018-02-08T03:19:12.297Z,-1.17
2018-02-08T03:20:18.987Z,-1.17
2018-02-08T03:21:25.675Z,-1.20
2018-02-08T03:22:32.455Z,-1.19
2018-02-08T03:23:39.149Z,-1.21
2018-02-08T03:24:45.832Z,-1.21
2018-02-08T03:25:52.522Z,-1.23
2018-02-08T03:26:59.223Z,-1.23
2018-02-08T03:28:05.952Z,-1.24
2018-02-08T03:29:12.651Z,-1.26
2018-02-08T03:30:19.480Z,-1.27
2018-02-08T03:31:26.272Z,-1.26
2018-02-08T03:32:33.032Z,-1.28
2018-02-08T03:33:39.729Z,-1.28
2018-02-08T03:34:46.411Z,-1.31
2018-02-08T03:35:53.576Z,-1.30
2018-02-08T03:37:00.763Z,-1.31
2018-02-08T03:38:07.578Z,-1.32
2018-02-08T03:39:14.260Z,-1.33
2018-02-08T03:40:20.943Z,-1.34
2018-02-08T03:41:27.656Z,-1.33
2018-02-08T03:42:34.367Z,-1.33
2018-02-08T03:43:41.071Z,-1.36
2018-02-08T03:44:47.739Z,-1.37
2018-02-08T03:45:54.439Z,-1.37
2018-02-08T03:47:01.160Z,-1.36
2018-02-08T03:48:07.971Z,-1.38
2018-02-08T03:49:14.663Z,-1.38
2018-02-08T03:50:21.836Z,-1.40
2018-02-08T03:51:28.523Z,-1.40
2018-02-08T03:52:35.215Z,-1.41
2018-02-08T03:53:41.999Z,-1.41
2018-02-08T03:54:48.683Z,-1.43
2018-02-08T03:55:55.364Z,-1.44
2018-02-08T03:57:02.068Z,-1.44
2018-02-08T03:58:08.871Z,-1.45
2018-02-08T03:59:15.542Z,-1.46
2018-02-08T04:00:22.232Z,-1.47
2018-02-08T04:01:28.928Z,-1.48
2018-02-08T04:02:35.648Z,-1.48
2018-02-08T04:03:42.380Z,-1.49
2018-02-08T04:04:49.200Z,-1.50
2018-02-08T04:05:56.045Z,-1.50
2018-02-08T04:07:02.872Z,-1.51
2018-02-08T04:08:09.633Z,-1.51
2018-02-08T04:09:16.387Z,-1.54
2018-02-08T04:10:23.115Z,-1.53
2018-02-08T04:11:29.867Z,-1.54
2018-02-08T04:12:36.587Z,-1.54
2018-02-08T04:13:43.359Z,-1.55
2018-02-08T04:14:50.107Z,-1.58
2018-02-08T04:15:56.827Z,-1.57
2018-02-08T04:17:03.580Z,-1.58
2018-02-08T04:18:10.500Z,-1.59
2018-02-08T04:19:17.244Z,-1.62
2018-02-08T04:20:23.964Z,-1.61
2018-02-08T04:21:30.713Z,-1.62
2018-02-08T04:22:37.457Z,-1.63
2018-02-08T04:23:44.293Z,-1.64
2018-02-08T04:24:51.031Z,-1.64
2018-02-08T04:25:57.764Z,-1.64
2018-02-08T04:27:04.599Z,-1.65
2018-02-08T04:28:11.408Z,-1.66
2018-02-08T04:29:18.135Z,-1.66
2018-02-08T04:30:24.851Z,-1.68
2018-02-08T04:31:31.603Z,-1.68
2018-02-08T04:32:38.327Z,-1.69
2018-02-08T04:33:45.076Z,-1.70
2018-02-08T04:34:51.879Z,-1.71
2018-02-08T04:35:58.572Z,-1.73
2018-02-08T04:37:05.321Z,-1.73
2018-02-08T04:38:12.134Z,-1.73
2018-02-08T04:39:19.032Z,-1.75
2018-02-08T04:40:25.995Z,-1.75
2018-02-08T04:41:33.042Z,-1.76
2018-02-08T04:42:39.839Z,-1.77
2018-02-08T04:43:46.683Z,-1.77
2018-02-08T04:44:53.570Z,-1.77
2018-02-08T04:46:00.511Z,-1.79
2018-02-08T04:47:12.853Z,-1.81
2018-02-08T04:48:19.691Z,-1.81
2018-02-08T04:49:26.472Z,-1.81
2018-02-08T04:50:33.183Z,-1.82
2018-02-08T04:51:39.975Z,-1.82
2018-02-08T04:52:46.713Z,-1.83
2018-02-08T04:53:53.416Z,-1.83
2018-02-08T04:55:00.127Z,-1.85
2018-02-08T04:56:06.940Z,-1.85
2018-02-08T04:57:13.659Z,-1.86
2018-02-08T04:58:20.450Z,-1.86
2018-02-08T04:59:27.276Z,-1.86
2018-02-08T05:00:34.175Z,-1.88
2018-02-08T05:01:40.939Z,-1.89
2018-02-08T05:02:47.728Z,-1.89
2018-02-08T05:03:54.559Z,-1.91
2018-02-08T05:05:01.278Z,-1.90
2018-02-08T05:06:08.037Z,-1.90
2018-02-08T05:07:14.757Z,-1.92
2018-02-08T05:08:21.484Z,-1.93
2018-02-08T05:09:28.191Z,-1.94
2018-02-08T05:10:34.875Z,-1.94
2018-02-08T05:11:41.651Z,-1.95
2018-02-08T05:12:48.348Z,-1.94
2018-02-08T05:13:55.292Z,-1.96
2018-02-08T05:15:02.151Z,-1.96
2018-02-08T05:16:08.900Z,-1.96
2018-02-08T05:17:15.603Z,-1.97
2018-02-08T05:18:22.325Z,-2.00
2018-02-08T05:19:29.023Z,-1.99
2018-02-08T05:20:35.708Z,-1.99
2018-02-08T05:21:42.502Z,-2.01
2018-02-08T05:22:49.223Z,-2.03
2018-02-08T05:23:55.914Z,-2.04
2018-02-08T05:25:02.595Z,-2.03
2018-02-08T05:26:09.287Z,-2.05
2018-02-08T05:27:15.975Z,-2.06
2018-02-08T05:28:22.696Z,-2.07
2018-02-08T05:29:29.375Z,-2.08
2018-02-08T05:30:36.087Z,-2.05
2018-02-08T05:31:42.760Z,-2.07
2018-02-08T05:32:49.467Z,-2.09
2018-02-08T05:33:56.246Z,-2.09
2018-02-08T05:35:02.945Z,-2.10
2018-02-08T05:36:09.722Z,-2.11
2018-02-08T05:37:16.419Z,-2.12
2018-02-08T05:38:23.141Z,-2.12
2018-02-08T05:39:30.083Z,-2.14
2018-02-08T05:40:36.788Z,-2.14
2018-02-08T05:41:43.485Z,-2.15
2018-02-08T05:42:50.217Z,-2.14
2018-02-08T05:43:56.931Z,-2.15
2018-02-08T05:45:03.611Z,-2.16
2018-02-08T05:46:10.292Z,-2.18
2018-02-08T05:47:16.999Z,-2.17
2018-02-08T05:48:23.685Z,-2.19
2018-02-08T05:49:30.494Z,-2.19
2018-02-08T05:50:37.246Z,-2.20
2018-02-08T05:51:43.956Z,-2.20
2018-02-08T05:52:50.644Z,-2.23
2018-02-08T05:53:57.348Z,-2.22
2018-02-08T05:55:04.132Z,-2.22
2018-02-08T05:56:10.792Z,-2.23
2018-02-08T05:57:17.575Z,-2.24
2018-02-08T05:58:24.311Z,-2.26
2018-02-08T05:59:30.984Z,-2.25
2018-02-08T06:00:37.670Z,-2.26
2018-02-08T06:01:44.353Z,-2.27
2018-02-08T06:02:51.539Z,-2.28
2018-02-08T06:03:58.212Z,-2.29
2018-02-08T06:05:04.960Z,-2.28
2018-02-08T06:06:11.679Z,-2.30
2018-02-08T06:07:18.464Z,-2.30
2018-02-08T06:08:25.241Z,-2.32
2018-02-08T06:09:31.979Z,-2.32
2018-02-08T06:10:38.703Z,-2.32
2018-02-08T06:11:45.460Z,-2.32
2018-02-08T06:12:52.200Z,-2.34
2018-02-08T06:13:59.153Z,-2.34
2018-02-08T06:15:06.618Z,-2.34
2018-02-08T06:16:12.943Z,-2.34
2018-02-08T06:17:19.839Z,-2.36
2018-02-08T06:18:26.798Z,-2.37
2018-02-08T06:19:33.635Z,-2.38
2018-02-08T06:20:40.363Z,-2.38
2018-02-08T06:21:47.198Z,-2.39
2018-02-08T06:22:54.055Z,-2.40
2018-02-08T06:24:00.838Z,-2.42
2018-02-08T06:25:07.680Z,-2.41
2018-02-08T06:26:14.556Z,-2.43
2018-02-08T06:27:21.434Z,-2.45
2018-02-08T06:28:28.144Z,-2.46
2018-02-08T06:29:34.882Z,-2.47
2018-02-08T06:30:41.626Z,-2.47
2018-02-08T06:31:48.372Z,-2.48
2018-02-08T06:32:55.130Z,-2.46
2018-02-08T06:34:01.965Z,-2.49
2018-02-08T06:35:08.700Z,-2.49
2018-02-08T06:36:15.461Z,-2.49
2018-02-08T06:37:22.332Z,-2.50
2018-02-08T06:38:29.136Z,-2.50
2018-02-08T06:39:35.851Z,-2.50
2018-02-08T06:40:42.560Z,-2.53
2018-02-08T06:41:49.288Z,-2.52
2018-02-08T06:42:56.297Z,-2.53
2018-02-08T06:44:03.035Z,-2.54
2018-02-08T06:45:09.808Z,-2.54
2018-02-08T06:46:16.539Z,-2.55
2018-02-08T06:47:23.278Z,-2.56
2018-02-08T06:48:30.139Z,-2.56
2018-02-08T06:49:36.875Z,-2.59
2018-02-08T06:50:43.631Z,-2.58
2018-02-08T06:51:50.669Z,-2.58
2018-02-08T06:52:57.476Z,-2.60
2018-02-08T06:54:04.236Z,-2.63
2018-02-08T06:55:10.977Z,-2.62
2018-02-08T06:56:17.771Z,-2.62
2018-02-08T06:57:24.789Z,-2.63
2018-02-08T06:58:31.616Z,-2.66
2018-02-08T06:59:38.362Z,-2.67
2018-02-08T07:00:45.119Z,-2.66
2018-02-08T07:01:51.885Z,-2.68
2018-02-08T07:02:58.771Z,-2.66
2018-02-08T07:04:05.581Z,-2.67
2018-02-08T07:05:12.516Z,-2.69
2018-02-08T07:06:19.279Z,-2.69
2018-02-08T07:07:26.052Z,-2.70
2018-02-08T07:08:32.781Z,-2.70
2018-02-08T07:09:39.490Z,-2.71
2018-02-08T07:10:46.175Z,-2.71
2018-02-08T07:11:52.972Z,-2.73
2018-02-08T07:12:59.796Z,-2.74
2018-02-08T07:14:06.533Z,-2.75
2018-02-08T07:15:13.291Z,-2.75
2018-02-08T07:16:19.980Z,-2.76
2018-02-08T07:17:26.699Z,-2.77
2018-02-08T07:18:33.352Z,-2.78
2018-02-08T07:19:40.142Z,-2.78
2018-02-08T07:20:46.943Z,-2.79
2018-02-08T07:21:53.714Z,-2.80
2018-02-08T07:23:00.424Z,-2.81
2018-02-08T07:24:07.280Z,-2.80
2018-02-08T07:25:14.080Z,-2.82
2018-02-08T07:26:20.760Z,-2.83
2018-02-08T07:27:27.435Z,-2.83
2018-02-08T07:28:34.119Z,-2.84
2018-02-08T07:29:40.867Z,-2.85
2018-02-08T07:30:47.607Z,-2.85
2018-02-08T07:31:54.628Z,-2.87
2018-02-08T07:33:01.308Z,-2.89
2018-02-08T07:34:08.057Z,-2.89
2018-02-08T07:35:14.780Z,-2.90
2018-02-08T07:36:21.488Z,-2.89
2018-02-08T07:37:28.275Z,-2.90
2018-02-08T07:38:35.068Z,-2.92
2018-02-08T07:39:41.847Z,-2.92
2018-02-08T07:40:48.579Z,-2.93
2018-02-08T07:41:55.324Z,-2.93
2018-02-08T07:43:02.019Z,-2.93
2018-02-08T07:44:08.707Z,-2.94
2018-02-08T07:45:15.408Z,-2.95
2018-02-08T07:46:22.196Z,-2.96
2018-02-08T07:47:28.923Z,-2.95
2018-02-08T07:48:35.679Z,-2.97
2018-02-08T07:49:42.478Z,-2.97
2018-02-08T07:50:49.204Z,-2.98
2018-02-08T07:51:56.018Z,-2.97
2018-02-08T07:53:02.691Z,-2.97
2018-02-08T07:54:09.367Z,-2.98
2018-02-08T07:55:16.079Z,-3.02
2018-02-08T07:56:22.781Z,-3.02
2018-02-08T07:57:29.519Z,-3.03
2018-02-08T07:58:36.202Z,-3.00
2018-02-08T07:59:42.918Z,-3.02
2018-02-08T08:00:49.615Z,-3.03
2018-02-08T08:01:56.308Z,-3.05
2018-02-08T08:03:03.471Z,-3.04
2018-02-08T08:04:10.184Z,-3.00
2018-02-08T08:05:17.013Z,-3.05
2018-02-08T08:06:23.792Z,-3.05
2018-02-08T08:07:30.573Z,-3.05
2018-02-08T08:08:37.323Z,-3.06
2018-02-08T08:09:44.164Z,-3.06
2018-02-08T08:10:51.012Z,-3.06
2018-02-08T08:11:57.804Z,-3.07
2018-02-08T08:13:04.538Z,-3.07
2018-02-08T08:14:11.323Z,-3.07
2018-02-08T08:15:18.070Z,-3.07
2018-02-08T08:16:24.847Z,-3.06
2018-02-08T08:17:31.645Z,-3.08
2018-02-08T08:18:38.511Z,-3.08
2018-02-08T08:19:45.260Z,-3.09
2018-02-08T08:20:52.024Z,-3.08
2018-02-08T08:21:58.768Z,-3.10
2018-02-08T08:23:05.653Z,-3.08
2018-02-08T08:24:12.428Z,-3.09
2018-02-08T08:25:19.167Z,-3.09
2018-02-08T08:26:25.936Z,-3.10
2018-02-08T08:27:32.824Z,-3.09
2018-02-08T08:28:39.591Z,-3.09
2018-02-08T08:29:46.367Z,-3.09
2018-02-08T08:30:53.100Z,-3.09
2018-02-08T08:31:59.992Z,-3.10
2018-02-08T08:33:06.749Z,-3.08
2018-02-08T08:34:13.548Z,-3.09
2018-02-08T08:35:20.316Z,-3.10
2018-02-08T08:36:27.129Z,-3.10
2018-02-08T08:37:33.888Z,-3.10
2018-02-08T08:38:40.765Z,-3.08
2018-02-08T08:39:47.631Z,-3.09
2018-02-08T08:40:54.363Z,-3.09
2018-02-08T08:42:01.171Z,-3.08
2018-02-08T08:43:07.892Z,-3.08
2018-02-08T08:44:14.621Z,-3.07
2018-02-08T08:45:21.423Z,-3.07
2018-02-08T08:46:28.135Z,-3.08
2018-02-08T08:47:34.963Z,-3.08
2018-02-08T08:48:41.678Z,-3.06
2018-02-08T08:49:48.407Z,-3.05
2018-02-08T08:50:55.251Z,-3.05
2018-02-08T08:52:01.956Z,-3.04
2018-02-08T08:53:09.080Z,-3.05
2018-02-08T08:54:15.844Z,-3.04
2018-02-08T08:55:22.576Z,-3.04
2018-02-08T08:56:29.320Z,-3.04
2018-02-08T08:57:36.064Z,-3.03
2018-02-08T08:58:42.867Z,-3.02
2018-02-08T08:59:49.595Z,-3.00
2018-02-08T09:00:56.419Z,-2.99
2018-02-08T09:02:03.199Z,-2.97
2018-02-08T09:03:10.020Z,-2.98
2018-02-08T09:04:16.756Z,-2.97
2018-02-08T09:05:23.500Z,-2.95
2018-02-08T09:06:30.208Z,-2.97
2018-02-08T09:07:36.908Z,-2.93
2018-02-08T09:08:43.612Z,-2.91
2018-02-08T09:09:50.408Z,-2.90
2018-02-08T09:10:57.095Z,-2.90
2018-02-08T09:12:03.864Z,-2.90
2018-02-08T09:13:10.607Z,-2.89
2018-02-08T09:14:17.398Z,-2.88
2018-02-08T09:15:24.171Z,-2.87
2018-02-08T09:16:30.863Z,-2.85
2018-02-08T09:17:37.616Z,-2.84
2018-02-08T09:18:44.334Z,-2.83
2018-02-08T09:19:51.017Z,-2.83
2018-02-08T09:20:57.734Z,-2.82
2018-02-08T09:22:04.423Z,-2.82
2018-02-08T09:23:11.099Z,-2.79
2018-02-08T09:24:17.823Z,-2.79
2018-02-08T09:25:24.610Z,-2.77
2018-02-08T09:26:31.303Z,-2.77
2018-02-08T09:27:37.988Z,-2.75
2018-02-08T09:28:44.715Z,-2.74
2018-02-08T09:29:51.403Z,-2.73
2018-02-08T09:30:58.107Z,-2.71
2018-02-08T09:32:04.795Z,-2.71
2018-02-08T09:33:11.522Z,-2.71
2018-02-08T09:34:18.219Z,-2.69
2018-02-08T09:35:25.043Z,-2.66
2018-02-08T09:36:31.722Z,-2.65
2018-02-08T09:37:38.469Z,-2.63
2018-02-08T09:38:45.363Z,-2.63
2018-02-08T09:39:52.255Z,-2.62
2018-02-08T09:40:58.907Z,-2.58
2018-02-08T09:42:05.604Z,-2.58
2018-02-08T09:43:12.288Z,-2.57
2018-02-08T09:44:19.124Z,-2.54
2018-02-08T09:45:25.832Z,-2.52
2018-02-08T09:46:32.666Z,-2.51
2018-02-08T09:47:39.327Z,-2.50
2018-02-08T09:48:46.023Z,-2.48
2018-02-08T09:49:52.759Z,-2.48
2018-02-08T09:50:59.474Z,-2.45
2018-02-08T09:52:06.248Z,-2.42
2018-02-08T09:53:12.967Z,-2.40
2018-02-08T09:54:19.803Z,-2.38
2018-02-08T09:55:26.507Z,-2.37
2018-02-08T09:56:33.201Z,-2.35
2018-02-08T09:57:39.904Z,-2.32
2018-02-08T09:58:46.583Z,-2.31
2018-02-08T09:59:53.280Z,-2.29
2018-02-08T10:00:59.979Z,-2.28
2018-02-08T10:02:06.688Z,-2.26
2018-02-08T10:03:13.418Z,-2.24
2018-02-08T10:04:20.229Z,-2.22
2018-02-08T10:05:27.151Z,-2.20
2018-02-08T10:06:33.844Z,-2.16
2018-02-08T10:07:40.565Z,-2.15
2018-02-08T10:08:47.239Z,-2.12
2018-02-08T10:09:54.065Z,-2.11
2018-02-08T10:11:00.899Z,-2.09
2018-02-08T10:12:07.648Z,-2.08
2018-02-08T10:13:14.375Z,-2.06
2018-02-08T10:14:21.160Z,-2.04
2018-02-08T10:15:27.909Z,-2.03
2018-02-08T10:16:34.597Z,-1.99
2018-02-08T10:17:41.271Z,-1.96
2018-02-08T10:18:47.948Z,-1.95
2018-02-08T10:19:54.656Z,-1.94
2018-02-08T10:21:01.391Z,-1.92
2018-02-08T10:22:08.336Z,-1.90
2018-02-08T10:23:15.069Z,-1.88
2018-02-08T10:24:21.781Z,-1.85
2018-02-08T10:25:28.499Z,-1.84
2018-02-08T10:26:35.242Z,-1.84
2018-02-08T10:27:41.956Z,-1.81
2018-02-08T10:28:48.642Z,-1.78
2018-02-08T10:29:55.348Z,-1.76
2018-02-08T10:31:02.039Z,-1.73
2018-02-08T10:32:08.720Z,-1.71
2018-02-08T10:33:15.392Z,-1.70
2018-02-08T10:34:22.204Z,-1.69
2018-02-08T10:35:28.968Z,-1.67
2018-02-08T10:36:35.737Z,-1.65
2018-02-08T10:37:42.432Z,-1.64
2018-02-08T10:38:49.115Z,-1.61
2018-02-08T10:39:55.788Z,-1.60
2018-02-08T10:41:02.540Z,-1.56
2018-02-08T10:42:09.303Z,-1.54
2018-02-08T10:43:16.044Z,-1.53
2018-02-08T10:44:22.767Z,-1.52
2018-02-08T10:45:29.456Z,-1.50
2018-02-08T10:46:36.180Z,-1.47
2018-02-08T10:47:42.961Z,-1.45
2018-02-08T10:48:49.768Z,-1.42
2018-02-08T10:49:56.445Z,-1.42
2018-02-08T10:51:03.149Z,-1.41
2018-02-08T10:52:09.888Z,-1.37
2018-02-08T10:53:16.632Z,-1.34
2018-02-08T10:54:23.356Z,-1.34
2018-02-08T10:55:30.224Z,-1.30
2018-02-08T10:56:36.957Z,-1.27
2018-02-08T10:57:43.695Z,-1.27
2018-02-08T10:58:50.380Z,-1.24
2018-02-08T10:59:57.155Z,-1.23
2018-02-08T11:01:03.832Z,-1.20
2018-02-08T11:02:10.530Z,-1.18
2018-02-08T11:03:17.411Z,-1.16
2018-02-08T11:04:24.088Z,-1.15
2018-02-08T11:05:30.827Z,-1.11
2018-02-08T11:06:37.524Z,-1.10
2018-02-08T11:07:44.295Z,-1.07
2018-02-08T11:08:51.116Z,-1.05
2018-02-08T11:09:57.823Z,-1.02
2018-02-08T11:11:04.591Z,-1.01
2018-02-08T11:12:11.316Z,-0.99
2018-02-08T11:13:18.061Z,-0.95
2018-02-08T11:14:24.755Z,-0.94
2018-02-08T11:15:31.572Z,-0.90
2018-02-08T11:16:38.375Z,-0.88
2018-02-08T11:17:45.098Z,-0.86
2018-02-08T11:18:51.852Z,-0.82
2018-02-08T11:19:58.550Z,-0.81
2018-02-08T11:21:05.371Z,-0.79
2018-02-08T11:22:12.107Z,-0.77
2018-02-08T11:23:18.835Z,-0.74
2018-02-08T11:24:25.563Z,-0.73
2018-02-08T11:25:32.315Z,-0.70
2018-02-08T11:26:39.031Z,-0.67
2018-02-08T11:27:45.927Z,-0.63
2018-02-08T11:28:52.763Z,-0.63
2018-02-08T11:29:59.482Z,-0.59
2018-02-08T11:31:06.275Z,-0.57
2018-02-08T11:32:12.976Z,-0.54
2018-02-08T11:33:19.724Z,-0.51
2018-02-08T11:34:26.436Z,-0.49
2018-02-08T11:35:33.167Z,-0.47
2018-02-08T11:36:39.886Z,-0.44
2018-02-08T11:37:46.762Z,-0.41
2018-02-08T11:38:53.525Z,-0.39
2018-02-08T11:40:00.259Z,-0.34
2018-02-08T11:41:07.060Z,-0.33
2018-02-08T11:42:13.848Z,-0.29
2018-02-08T11:43:20.686Z,-0.25
2018-02-08T11:44:27.507Z,-0.24
2018-02-08T11:45:34.324Z,-0.20
2018-02-08T11:46:41.047Z,-0.19
2018-02-08T11:47:47.783Z,-0.16
2018-02-08T11:48:54.505Z,-0.13
2018-02-08T11:50:01.243Z,-0.09
2018-02-08T11:51:07.955Z,-0.05
2018-02-08T11:52:14.752Z,-0.03
2018-02-08T11:53:21.458Z,0.01
2018-02-08T11:54:28.223Z,0.03
2018-02-08T11:55:34.955Z,0.07
2018-02-08T11:56:41.638Z,0.10
2018-02-08T11:57:48.351Z,0.13
2018-02-08T11:58:55.179Z,0.17
2018-02-08T12:00:01.968Z,0.19
2018-02-08T12:01:08.816Z,0.23
2018-02-08T12:02:15.502Z,0.25
2018-02-08T12:03:22.315Z,0.27
2018-02-08T12:04:29.118Z,0.30
2018-02-08T12:05:35.902Z,0.35
2018-02-08T12:06:42.772Z,0.38
2018-02-08T12:07:49.551Z,0.40
2018-02-08T12:08:56.347Z,0.42
2018-02-08T12:10:03.171Z,0.47
2018-02-08T12:11:09.934Z,0.49
2018-02-08T12:12:16.673Z,0.51
2018-02-08T12:13:23.458Z,0.54
2018-02-08T12:14:30.247Z,0.56
2018-02-08T12:15:37.068Z,0.59
2018-02-08T12:16:43.808Z,0.61
2018-02-08T12:17:50.565Z,0.66
2018-02-08T12:18:57.319Z,0.67
2018-02-08T12:20:04.333Z,0.70
2018-02-08T12:21:11.163Z,0.72
2018-02-08T12:22:18.215Z,0.74
2018-02-08T12:23:24.872Z,0.76
2018-02-08T12:24:31.626Z,0.78
2018-02-08T12:25:38.521Z,0.82
2018-02-08T12:26:45.411Z,0.85
2018-02-08T12:27:52.275Z,0.87
2018-02-08T12:28:59.040Z,0.91
2018-02-08T12:30:05.840Z,0.91
2018-02-08T12:31:12.647Z,0.96
2018-02-08T12:32:19.403Z,0.97
2018-02-08T12:33:26.175Z,1.00
2018-02-08T12:34:32.939Z,1.02
2018-02-08T12:35:39.736Z,1.05
2018-02-08T12:36:46.572Z,1.07
2018-02-08T12:37:53.617Z,1.11
2018-02-08T12:39:00.383Z,1.13
2018-02-08T12:40:07.509Z,1.15
2018-02-08T12:41:14.292Z,1.17
2018-02-08T12:42:21.061Z,1.19
2018-02-08T12:43:27.982Z,1.22
2018-02-08T12:44:34.905Z,1.24
2018-02-08T12:45:41.796Z,1.28
2018-02-08T12:46:48.585Z,1.28
2018-02-08T12:47:55.387Z,1.32
2018-02-08T12:49:02.570Z,1.34
2018-02-08T12:50:09.416Z,1.35
2018-02-08T12:51:16.222Z,1.38
2018-02-08T12:52:22.999Z,1.41
2018-02-08T12:53:29.760Z,1.45
2018-02-08T12:54:36.551Z,1.46
2018-02-08T12:55:43.340Z,1.50
2018-02-08T12:56:50.108Z,1.51
2018-02-08T12:57:57.006Z,1.53
2018-02-08T12:59:03.962Z,1.55
2018-02-08T13:00:10.812Z,1.57
2018-02-08T13:01:17.595Z,1.62
2018-02-08T13:02:24.391Z,1.64
2018-02-08T13:03:31.551Z,1.65
2018-02-08T13:04:38.416Z,1.67
2018-02-08T13:05:45.199Z,1.69
2018-02-08T13:06:51.947Z,1.73
2018-02-08T13:08:02.026Z,1.75
2018-02-08T13:09:05.518Z,1.77
2018-02-08T13:10:12.227Z,1.79
2018-02-08T13:11:18.959Z,1.82
2018-02-08T13:12:25.765Z,1.84
2018-02-08T13:13:32.623Z,1.86
2018-02-08T13:14:39.351Z,1.88
2018-02-08T13:15:46.098Z,1.91
2018-02-08T13:16:52.868Z,1.92
2018-02-08T13:17:59.594Z,1.96
2018-02-08T13:19:06.397Z,1.96
2018-02-08T13:20:13.203Z,2.00
2018-02-08T13:21:20.204Z,2.01
2018-02-08T13:22:26.952Z,2.04
2018-02-08T13:23:33.730Z,2.05
2018-02-08T13:24:40.540Z,2.08
2018-02-08T13:25:47.340Z,2.09
2018-02-08T13:26:54.072Z,2.11
2018-02-08T13:28:00.838Z,2.14
2018-02-08T13:29:07.567Z,2.16
2018-02-08T13:30:14.475Z,2.18
2018-02-08T13:31:21.204Z,2.20
2018-02-08T13:32:28.057Z,2.22
2018-02-08T13:33:34.938Z,2.23
2018-02-08T13:34:41.650Z,2.25
2018-02-08T13:35:48.445Z,2.28
2018-02-08T13:36:55.155Z,2.28
2018-02-08T13:38:02.023Z,2.30
2018-02-08T13:39:08.809Z,2.30
2018-02-08T13:40:15.613Z,2.33
2018-02-08T13:41:22.535Z,2.33
2018-02-08T13:42:29.303Z,2.35
2018-02-08T13:43:36.125Z,2.36
2018-02-08T13:44:42.935Z,2.39
2018-02-08T13:45:49.700Z,2.40
2018-02-08T13:46:56.591Z,2.42
2018-02-08T13:48:03.477Z,2.43
2018-02-08T13:49:10.300Z,2.45
2018-02-08T13:50:17.196Z,2.46
2018-02-08T13:51:24.039Z,2.47
2018-02-08T13:52:31.004Z,2.48
2018-02-08T13:53:37.828Z,2.49
2018-02-08T13:54:44.723Z,2.51
2018-02-08T13:55:51.595Z,2.51
2018-02-08T13:56:58.431Z,2.54
2018-02-08T13:58:05.314Z,2.55
2018-02-08T13:59:12.095Z,2.56
2018-02-08T14:00:18.891Z,2.57
2018-02-08T14:01:25.759Z,2.58
2018-02-08T14:02:32.562Z,2.59
2018-02-08T14:03:39.376Z,2.59
2018-02-08T14:04:46.223Z,2.60
2018-02-08T14:05:53.019Z,2.64
2018-02-08T14:06:59.746Z,2.64
2018-02-08T14:08:06.556Z,2.65
2018-02-08T14:09:13.343Z,2.66
2018-02-08T14:10:20.102Z,2.65
2018-02-08T14:11:26.888Z,2.68
2018-02-08T14:12:33.784Z,2.68
2018-02-08T14:13:40.562Z,2.69
2018-02-08T14:14:47.357Z,2.71
2018-02-08T14:15:54.236Z,2.72
2018-02-08T14:17:00.988Z,2.72
2018-02-08T14:18:07.760Z,2.73
2018-02-08T14:19:14.534Z,2.74
2018-02-08T14:20:21.376Z,2.74
2018-02-08T14:21:28.148Z,2.76
2018-02-08T14:22:34.943Z,2.76
2018-02-08T14:23:41.966Z,2.77
2018-02-08T14:24:48.832Z,2.78